createdAt,value
2024-03-02T00:01:46.345Z,8.81
2024-03-02T00:04:48.978Z,8.68
2024-03-02T00:08:01.449Z,8.52
2024-03-02T00:11:04.312Z,8.35
2024-03-02T00:14:07.241Z,8.19
2024-03-02T00:17:22.338Z,8.13
2024-03-02T00:20:25.001Z,8.18
2024-03-02T00:23:34.822Z,8.23
2024-03-02T00:26:37.325Z,8.26
2024-03-02T00:29:44.699Z,8.24
2024-03-02T00:32:48.078Z,8.27
2024-03-02T00:35:51.239Z,8.27
2024-03-02T00:38:55.892Z,8.26
2024-03-02T00:41:59.130Z,8.22
2024-03-02T00:45:09.194Z,8.24
2024-03-02T00:48:11.911Z,8.26
2024-03-02T00:51:14.807Z,8.22
2024-03-02T00:54:25.493Z,8.17
2024-03-02T00:57:33.197Z,8.09
2024-03-02T01:00:35.777Z,8.13
2024-03-02T01:03:38.575Z,8.18
2024-03-02T01:06:41.330Z,8.18
2024-03-02T01:09:43.916Z,8.17
2024-03-02T01:12:46.663Z,8.12
2024-03-02T01:15:49.232Z,8.09
2024-03-02T01:18:52.309Z,8.12
2024-03-02T01:21:55.054Z,8.21
2024-03-02T01:24:57.730Z,8.31
2024-03-02T01:28:00.292Z,8.41
2024-03-02T01:31:03.420Z,8.45
2024-03-02T01:34:07.509Z,8.41
2024-03-02T01:37:11.362Z,8.36
2024-03-02T01:40:13.852Z,8.29
2024-03-02T01:43:16.410Z,8.41
2024-03-02T01:46:19.279Z,8.47
2024-03-02T01:49:21.886Z,8.52
2024-03-02T01:52:24.349Z,8.45
2024-03-02T01:55:28.093Z,8.36
2024-03-02T01:58:30.646Z,8.28
2024-03-02T02:01:33.170Z,8.30
2024-03-02T02:04:35.777Z,8.27
2024-03-02T02:07:38.535Z,8.30
2024-03-02T02:10:41.237Z,8.30
2024-03-02T02:13:43.885Z,8.29
2024-03-02T02:16:47.083Z,8.38
2024-03-02T02:19:49.583Z,8.30
2024-03-02T02:22:56.124Z,8.27
2024-03-02T02:25:58.647Z,8.20
2024-03-02T02:29:02.335Z,8.25
2024-03-02T02:32:05.220Z,8.30
2024-03-02T02:35:08.257Z,8.33
2024-03-02T02:38:10.799Z,8.39
2024-03-02T02:41:14.034Z,8.38
2024-03-02T02:44:16.553Z,8.41
2024-03-02T02:47:19.069Z,8.46
2024-03-02T02:50:22.316Z,8.44
2024-03-02T02:53:24.972Z,8.44
2024-03-02T02:56:27.531Z,8.43
2024-03-02T02:59:30.059Z,8.52
2024-03-02T03:02:32.599Z,8.49
2024-03-02T03:05:35.051Z,8.47
2024-03-02T03:08:38.023Z,8.41
2024-03-02T03:11:40.525Z,8.38
2024-03-02T03:14:43.159Z,8.35
2024-03-02T03:17:47.476Z,8.46
2024-03-02T03:20:50.089Z,8.47
2024-03-02T03:23:52.546Z,8.47
2024-03-02T03:26:55.008Z,8.44
2024-03-02T03:29:57.494Z,8.45
2024-03-02T03:33:00.093Z,8.43
2024-03-02T03:36:04.632Z,8.45
2024-03-02T03:39:07.479Z,8.43
2024-03-02T03:42:10.049Z,8.46
2024-03-02T03:45:12.556Z,8.48
2024-03-02T03:48:15.163Z,8.55
2024-03-02T03:51:17.762Z,8.68
2024-03-02T03:54:20.328Z,8.62
2024-03-02T03:57:22.891Z,8.61
2024-03-02T04:00:25.453Z,8.53
2024-03-02T04:03:28.096Z,8.59
2024-03-02T04:06:30.978Z,8.52
2024-03-02T04:09:34.014Z,8.49
2024-03-02T04:12:38.101Z,8.48
2024-03-02T04:15:41.792Z,8.46
2024-03-02T04:18:44.537Z,8.46
2024-03-02T04:21:47.062Z,8.59
2024-03-02T04:24:49.581Z,8.55
2024-03-02T04:27:52.262Z,8.51
2024-03-02T04:30:55.140Z,8.61
2024-03-02T04:33:57.780Z,8.63
2024-03-02T04:37:01.590Z,8.66
2024-03-02T04:40:09.403Z,8.72
2024-03-02T04:43:16.131Z,8.72
2024-03-02T04:46:18.771Z,8.72
2024-03-02T04:49:21.408Z,8.70
2024-03-02T04:52:23.888Z,8.66
2024-03-02T04:55:46.416Z,8.67
2024-03-02T04:58:49.356Z,8.71
2024-03-02T05:01:51.890Z,8.86
2024-03-02T05:04:54.415Z,8.80
2024-03-02T05:07:56.942Z,8.84
2024-03-02T05:11:19.489Z,8.75
2024-03-02T05:14:22.301Z,8.62
2024-03-02T05:17:24.751Z,8.65
2024-03-02T05:20:27.369Z,8.67
2024-03-02T05:23:29.892Z,8.63
2024-03-02T05:26:32.351Z,8.54
2024-03-02T05:29:34.843Z,8.65
2024-03-02T05:32:37.395Z,8.70
2024-03-02T05:35:39.898Z,8.62
2024-03-02T05:38:42.443Z,8.65
2024-03-02T05:41:44.945Z,8.69
2024-03-02T05:44:47.572Z,8.65
2024-03-02T05:47:50.606Z,8.62
2024-03-02T05:50:53.151Z,8.66
2024-03-02T05:53:56.174Z,8.77
2024-03-02T05:57:17.800Z,8.66
2024-03-02T06:00:20.687Z,8.54
2024-03-02T06:03:23.246Z,8.54
2024-03-02T06:06:26.306Z,8.50
2024-03-02T06:09:28.849Z,8.52
2024-03-02T06:12:32.577Z,8.50
2024-03-02T06:15:37.193Z,8.48
2024-03-02T06:18:40.707Z,8.59
2024-03-02T06:21:43.639Z,8.63
2024-03-02T06:24:49.198Z,8.62
2024-03-02T06:27:51.751Z,8.65
2024-03-02T06:30:55.235Z,8.75
2024-03-02T06:33:58.465Z,8.82
2024-03-02T06:37:01.599Z,8.80
2024-03-02T06:40:06.438Z,8.83
2024-03-02T06:43:09.875Z,8.82
2024-03-02T06:46:15.856Z,8.91
2024-03-02T06:49:19.209Z,8.84
2024-03-02T06:52:25.000Z,8.92
2024-03-02T06:55:28.247Z,8.91
2024-03-02T06:58:30.748Z,8.95
2024-03-02T07:01:33.409Z,9.14
2024-03-02T07:04:36.090Z,9.25
2024-03-02T07:07:39.164Z,9.33
2024-03-02T07:10:41.712Z,9.31
2024-03-02T07:13:44.245Z,9.42
2024-03-02T07:16:46.817Z,9.54
2024-03-02T07:19:49.392Z,9.45
2024-03-02T07:22:52.164Z,9.36
2024-03-02T07:29:03.169Z,9.49
2024-03-02T07:32:06.456Z,9.47
2024-03-02T07:35:09.190Z,9.59
2024-03-02T07:38:13.767Z,9.65
2024-03-02T07:41:17.723Z,9.68
2024-03-02T07:44:21.238Z,9.74
2024-03-02T07:47:23.914Z,9.80
2024-03-02T07:50:26.505Z,9.68
2024-03-02T07:53:29.440Z,9.77
2024-03-02T07:56:32.017Z,9.64
2024-03-02T07:59:35.955Z,9.55
2024-03-02T08:02:38.556Z,9.63
2024-03-02T08:05:41.162Z,9.58
2024-03-02T08:08:43.786Z,9.57
2024-03-02T08:11:46.343Z,9.54
2024-03-02T08:14:48.806Z,9.47
2024-03-02T08:17:51.408Z,9.51
2024-03-02T08:20:53.973Z,9.54
2024-03-02T08:23:57.347Z,9.51
2024-03-02T08:27:01.248Z,9.54
2024-03-02T08:30:08.071Z,9.48
2024-03-02T08:33:11.468Z,9.52
2024-03-02T08:36:14.073Z,9.55
2024-03-02T08:39:17.072Z,9.56
2024-03-02T08:42:19.923Z,9.52
2024-03-02T08:45:22.670Z,9.57
2024-03-02T08:48:25.951Z,9.52
2024-03-02T08:51:28.543Z,9.59
2024-03-02T08:54:31.200Z,9.57
2024-03-02T08:57:34.386Z,9.62
2024-03-02T09:00:37.123Z,9.65
2024-03-02T09:03:39.767Z,9.66
2024-03-02T09:06:42.384Z,9.66
2024-03-02T09:09:45.004Z,9.74
2024-03-02T09:12:47.674Z,9.77
2024-03-02T09:15:50.167Z,9.94
2024-03-02T09:18:52.670Z,10.05
2024-03-02T09:21:56.887Z,10.25
2024-03-02T09:25:00.003Z,10.19
2024-03-02T09:28:02.686Z,10.23
2024-03-02T09:31:05.425Z,10.29
2024-03-02T09:34:08.713Z,10.39
2024-03-02T09:37:12.683Z,10.67
2024-03-02T09:40:15.475Z,10.82
2024-03-02T09:43:18.462Z,10.77
2024-03-02T09:46:21.107Z,10.77
2024-03-02T09:49:25.063Z,10.70
2024-03-02T09:52:32.528Z,10.68
2024-03-02T09:55:35.123Z,10.74
2024-03-02T09:58:37.656Z,10.84
2024-03-02T10:01:40.278Z,10.78
2024-03-02T10:04:42.983Z,10.62
2024-03-02T10:07:59.948Z,10.56
2024-03-02T10:11:02.555Z,10.58
2024-03-02T10:14:09.556Z,10.52
2024-03-02T10:17:16.869Z,10.41
2024-03-02T10:20:24.670Z,10.49
2024-03-02T10:23:27.395Z,10.49
2024-03-02T10:26:30.465Z,10.68
2024-03-02T10:29:33.108Z,10.65
2024-03-02T10:32:35.711Z,10.64
2024-03-02T10:35:40.286Z,10.77
2024-03-02T10:38:42.920Z,10.61
2024-03-02T10:41:47.348Z,10.49
2024-03-02T10:44:50.738Z,10.57
2024-03-02T10:47:53.286Z,10.29
2024-03-02T10:50:59.183Z,10.13
2024-03-02T10:54:04.423Z,10.21
2024-03-02T10:57:10.945Z,10.14
2024-03-02T11:00:17.176Z,10.27
2024-03-02T11:03:19.889Z,10.37
2024-03-02T11:06:25.249Z,10.36
2024-03-02T11:09:32.835Z,10.17
2024-03-02T11:12:49.892Z,10.13
2024-03-02T11:15:56.975Z,10.15
2024-03-02T11:18:59.968Z,10.13
2024-03-02T11:22:04.671Z,10.16
2024-03-02T11:25:24.318Z,10.31
2024-03-02T11:28:37.968Z,10.28
2024-03-02T11:32:00.824Z,10.37
2024-03-02T11:35:03.917Z,10.59
2024-03-02T11:38:08.265Z,10.62
2024-03-02T11:41:11.016Z,10.71
2024-03-02T11:44:14.071Z,10.75
2024-03-02T11:47:18.111Z,10.81
2024-03-02T11:50:41.833Z,10.91
2024-03-02T11:53:47.615Z,10.90
2024-03-02T11:56:50.153Z,11.04
2024-03-02T11:59:53.025Z,10.86
2024-03-02T12:03:22.548Z,10.84
2024-03-02T12:06:25.477Z,10.80
2024-03-02T12:09:31.525Z,10.88
2024-03-02T12:12:34.173Z,10.78
2024-03-02T12:15:38.415Z,10.72
2024-03-02T12:18:44.481Z,10.80
2024-03-02T12:21:47.280Z,10.78
2024-03-02T12:24:50.493Z,10.69
2024-03-02T12:27:55.907Z,10.72
2024-03-02T12:30:58.982Z,10.74
2024-03-02T12:34:01.899Z,10.57
2024-03-02T12:37:04.944Z,10.60
2024-03-02T12:40:10.716Z,10.50
2024-03-02T12:43:13.619Z,10.43
2024-03-02T12:46:17.038Z,10.46
2024-03-02T12:49:23.691Z,10.37
2024-03-02T12:52:28.195Z,10.30
2024-03-02T12:55:33.090Z,10.31
2024-03-02T12:58:44.607Z,10.24
2024-03-02T13:01:54.657Z,10.26
2024-03-02T13:04:58.750Z,10.38
2024-03-02T13:08:02.057Z,10.43
2024-03-02T13:11:04.957Z,10.36
2024-03-02T13:14:07.668Z,10.38
2024-03-02T13:17:10.921Z,10.20
2024-03-02T13:20:15.422Z,10.09
2024-03-02T13:23:18.483Z,10.22
2024-03-02T13:26:21.681Z,10.14
2024-03-02T13:29:24.379Z,10.10
2024-03-02T13:32:27.255Z,10.24
2024-03-02T13:35:30.035Z,10.17
2024-03-02T13:38:32.829Z,10.13
2024-03-02T13:41:35.357Z,10.08
2024-03-02T13:44:38.704Z,9.92
2024-03-02T13:47:41.641Z,9.86
2024-03-02T13:50:44.384Z,9.96
2024-03-02T13:53:48.616Z,9.99
2024-03-02T13:56:52.446Z,10.00
2024-03-02T13:59:55.895Z,10.12
2024-03-02T14:02:58.563Z,10.13
2024-03-02T14:06:01.442Z,10.12
2024-03-02T14:09:04.067Z,10.00
2024-03-02T14:12:07.311Z,9.89
2024-03-02T14:15:10.355Z,9.84
2024-03-02T14:18:13.182Z,9.75
2024-03-02T14:21:15.776Z,9.89
2024-03-02T14:24:18.419Z,9.73
2024-03-02T14:27:28.803Z,9.75
2024-03-02T14:30:41.245Z,9.69
2024-03-02T14:33:43.939Z,9.76
2024-03-02T14:36:46.527Z,9.71
2024-03-02T14:39:49.307Z,9.64
2024-03-02T14:42:51.950Z,9.51
2024-03-02T14:45:54.636Z,9.52
2024-03-02T14:48:57.455Z,9.53
2024-03-02T14:52:00.046Z,9.59
2024-03-02T14:55:05.328Z,9.57
2024-03-02T14:58:09.382Z,9.49
2024-03-02T15:01:13.618Z,9.56
2024-03-02T15:04:19.317Z,9.46
2024-03-02T15:07:23.655Z,9.44
2024-03-02T15:10:26.420Z,9.45
2024-03-02T15:13:29.103Z,9.56
2024-03-02T15:16:31.737Z,9.49
2024-03-02T15:19:34.597Z,9.53
2024-03-02T15:22:37.056Z,9.42
2024-03-02T15:25:39.587Z,9.44
2024-03-02T15:28:42.252Z,9.57
2024-03-02T15:31:44.755Z,9.53
2024-03-02T15:34:47.569Z,9.48
2024-03-02T15:37:50.251Z,9.49
2024-03-02T15:40:52.826Z,9.47
2024-03-02T15:43:55.423Z,9.52
2024-03-02T15:46:58.151Z,9.47
2024-03-02T15:50:00.655Z,9.43
2024-03-02T15:53:07.041Z,9.54
2024-03-02T15:56:10.243Z,9.50
2024-03-02T15:59:14.532Z,9.47
2024-03-02T16:02:17.828Z,9.49
2024-03-02T16:05:21.555Z,9.44
2024-03-02T16:08:24.223Z,9.41
2024-03-02T16:11:27.602Z,9.42
2024-03-02T16:14:30.401Z,9.35
2024-03-02T16:17:33.142Z,9.38
2024-03-02T16:20:35.828Z,9.45
2024-03-02T16:23:38.736Z,9.45
2024-03-02T16:26:41.318Z,9.41
2024-03-02T16:29:43.999Z,9.48
2024-03-02T16:32:49.472Z,9.44
2024-03-02T16:35:52.071Z,9.51
2024-03-02T16:38:55.487Z,9.42
2024-03-02T16:41:58.016Z,9.45
2024-03-02T16:45:00.691Z,9.45
2024-03-02T16:48:05.660Z,9.34
2024-03-02T16:51:08.372Z,9.37
2024-03-02T16:54:11.108Z,9.36
2024-03-02T16:57:14.434Z,9.30
2024-03-02T17:00:17.641Z,9.30
2024-03-02T17:03:21.999Z,9.28
2024-03-02T17:06:25.780Z,9.28
2024-03-02T17:09:28.572Z,9.32
2024-03-02T17:12:31.362Z,9.36
2024-03-02T17:15:34.262Z,9.38
2024-03-02T17:18:36.906Z,9.42
2024-03-02T17:21:39.498Z,9.45
2024-03-02T17:24:42.134Z,9.36
2024-03-02T17:27:44.741Z,9.31
2024-03-02T17:30:47.362Z,9.26
2024-03-02T17:33:50.052Z,9.21
2024-03-02T17:36:52.868Z,9.20
2024-03-02T17:39:56.196Z,9.17
2024-03-02T17:42:59.019Z,9.25
2024-03-02T17:46:02.041Z,9.17
2024-03-02T17:49:05.451Z,9.18
2024-03-02T17:52:08.284Z,9.14
2024-03-02T17:55:11.103Z,9.12
2024-03-02T17:58:13.861Z,9.15
2024-03-02T18:01:17.416Z,9.13
2024-03-02T18:04:20.243Z,9.19
2024-03-02T18:07:22.968Z,9.16
2024-03-02T18:10:25.724Z,9.24
2024-03-02T18:13:30.364Z,9.20
2024-03-02T18:16:33.028Z,9.22
2024-03-02T18:19:36.429Z,9.20
2024-03-02T18:22:39.402Z,9.17
2024-03-02T18:25:47.515Z,9.20
2024-03-02T18:28:50.453Z,9.24
2024-03-02T18:31:53.121Z,9.26
2024-03-02T18:34:55.817Z,9.27
2024-03-02T18:37:58.626Z,9.31
2024-03-02T18:41:01.322Z,9.31
2024-03-02T18:44:05.145Z,9.28
2024-03-02T18:47:07.826Z,9.34
2024-03-02T18:50:10.944Z,9.31
2024-03-02T18:53:14.600Z,9.32
2024-03-02T18:56:17.562Z,9.32
2024-03-02T18:59:23.296Z,9.32
2024-03-02T19:02:26.198Z,9.30
2024-03-02T19:05:29.599Z,9.25
2024-03-02T19:08:33.051Z,9.18
2024-03-02T19:11:36.227Z,9.17
2024-03-02T19:14:39.997Z,9.18
2024-03-02T19:17:42.618Z,9.14
2024-03-02T19:20:45.312Z,9.12
2024-03-02T19:23:48.160Z,9.15
2024-03-02T19:26:50.733Z,9.12
2024-03-02T19:29:53.307Z,9.15
2024-03-02T19:32:56.299Z,9.21
2024-03-02T19:35:59.028Z,9.23
2024-03-02T19:39:01.800Z,9.18
2024-03-02T19:42:07.317Z,9.17
2024-03-02T19:45:10.339Z,9.26
2024-03-02T19:48:15.040Z,9.21
2024-03-02T19:51:17.893Z,9.18
2024-03-02T19:54:20.458Z,9.21
2024-03-02T19:57:25.379Z,9.31
2024-03-02T20:00:28.431Z,9.38
2024-03-02T20:03:31.309Z,9.31
2024-03-02T20:06:34.308Z,9.32
2024-03-02T20:09:37.219Z,9.35
2024-03-02T20:12:40.124Z,9.38
2024-03-02T20:15:45.721Z,9.37
2024-03-02T20:18:48.550Z,9.40
2024-03-02T20:21:51.265Z,9.38
2024-03-02T20:24:54.084Z,9.40
2024-03-02T20:27:56.673Z,9.46
2024-03-02T20:30:59.498Z,9.42
2024-03-02T20:34:02.194Z,9.41
2024-03-02T20:37:05.670Z,9.40
2024-03-02T20:40:10.078Z,9.38
2024-03-02T20:43:14.734Z,9.34
2024-03-02T20:46:17.622Z,9.35
2024-03-02T20:49:24.825Z,9.39
2024-03-02T20:52:27.493Z,9.47
2024-03-02T20:55:31.099Z,9.43
2024-03-02T20:58:33.920Z,9.40
2024-03-02T21:01:37.342Z,9.40
2024-03-02T21:04:39.832Z,9.42
2024-03-02T21:07:42.400Z,9.45
2024-03-02T21:10:46.938Z,9.46
2024-03-02T21:13:51.152Z,9.38
2024-03-02T21:16:53.696Z,9.38
2024-03-02T21:19:57.087Z,9.35
2024-03-02T21:23:01.763Z,9.42
2024-03-02T21:26:05.571Z,9.48
2024-03-02T21:29:10.164Z,9.45
2024-03-02T21:32:13.353Z,9.44
2024-03-02T21:35:16.318Z,9.40
2024-03-02T21:38:18.813Z,9.39
2024-03-02T21:41:21.409Z,9.33
2024-03-02T21:44:23.882Z,9.38
2024-03-02T21:47:26.391Z,9.34
2024-03-02T21:50:30.114Z,9.28
2024-03-02T21:53:32.667Z,9.19
2024-03-02T21:56:35.243Z,9.20
2024-03-02T21:59:37.985Z,9.26
2024-03-02T22:02:40.887Z,9.19
2024-03-02T22:05:43.575Z,9.21
2024-03-02T22:08:46.183Z,9.26
2024-03-02T22:11:48.667Z,9.17
2024-03-02T22:14:51.878Z,9.07
2024-03-02T22:17:54.478Z,9.09
2024-03-02T22:20:57.025Z,9.12
2024-03-02T22:23:59.448Z,9.03
2024-03-02T22:27:02.003Z,9.12
2024-03-02T22:30:07.750Z,9.11
2024-03-02T22:33:12.027Z,9.14
2024-03-02T22:36:14.716Z,9.06
2024-03-02T22:39:17.268Z,9.02
2024-03-02T22:42:19.756Z,9.17
2024-03-02T22:45:22.372Z,9.06
2024-03-02T22:48:25.327Z,9.11
2024-03-02T22:51:28.347Z,9.03
2024-03-02T22:54:30.920Z,8.94
2024-03-02T22:57:33.759Z,8.94
2024-03-02T23:00:49.206Z,8.98
2024-03-02T23:03:52.114Z,8.91
2024-03-02T23:06:54.640Z,9.05
2024-03-02T23:09:57.131Z,9.14
2024-03-02T23:12:59.964Z,9.13
2024-03-02T23:16:02.619Z,8.99
2024-03-02T23:19:05.359Z,8.96
2024-03-02T23:22:09.602Z,8.96
2024-03-02T23:25:12.261Z,9.08
2024-03-02T23:28:14.956Z,8.85
2024-03-02T23:31:17.630Z,8.79
2024-03-02T23:34:20.289Z,8.78
2024-03-02T23:37:23.028Z,8.71
2024-03-02T23:40:28.706Z,8.64
2024-03-02T23:43:31.818Z,8.57
2024-03-02T23:46:34.286Z,8.45
2024-03-02T23:49:36.904Z,8.39
2024-03-02T23:52:39.509Z,8.33
2024-03-02T23:55:47.829Z,8.27
2024-03-02T23:58:55.009Z,8.19
